Time;durP1;ratioP1;P1;durP2;ratioP2;P2;SDS_P1;SDS_P2;PMS_P1;PMS_P2;Temp;Humidity;BMP_temperature;BMP_pressure;BME280_temperature;BME280_humidity;BME280_pressure;Samples;Min_cycle;Max_cycle;Signal;HPM_P1;HPM_P2
2021/12/05 00:24:01;;;;;;;36.78;12.25;;;3.50;99.90;;;;;;5129682;27;20056;-76
2021/12/05 00:26:30;;;;;;;27.20;9.90;;;3.50;99.90;;;;;;5135284;27;20073;-83
2021/12/05 00:37:52;;;;;;;31.95;10.43;;;3.60;99.90;;;;;;5134657;27;20499;-77
2021/12/05 00:40:39;;;;;;;27.58;10.35;;;3.50;99.90;;;;;;5118985;28;20047;-78
2021/12/05 00:46:03;;;;;;;31.35;10.30;;;3.40;99.90;;;;;;5099323;28;20513;-77
2021/12/05 00:52:13;;;;;;;30.20;11.30;;;3.40;99.90;;;;;;5114859;28;20098;-77
2021/12/05 01:02:34;;;;;;;34.88;12.10;;;3.50;99.90;;;;;;5113329;28;20538;-77
2021/12/05 01:10:29;;;;;;;32.25;11.10;;;3.30;99.90;;;;;;5132396;28;20050;-77
2021/12/05 01:13:15;;;;;;;32.22;10.52;;;3.30;99.90;;;;;;5127518;27;20064;-77
2021/12/05 01:15:37;;;;;;;33.58;10.82;;;3.30;99.90;;;;;;5130624;28;20039;-80
2021/12/05 01:18:15;;;;;;;34.03;11.77;;;3.40;99.90;;;;;;5132089;28;20051;-77
2021/12/05 01:20:46;;;;;;;37.00;10.85;;;3.40;99.90;;;;;;5114600;27;20188;-77
2021/12/05 01:23:43;;;;;;;32.33;12.43;;;3.40;99.90;;;;;;5119889;27;20130;-77
2021/12/05 01:26:08;;;;;;;32.15;12.63;;;3.50;99.90;;;;;;5116716;27;20054;-77
2021/12/05 01:55:36;;;;;;;34.47;11.65;;;3.60;99.90;;;;;;5123128;27;20050;-77
2021/12/05 02:30:51;;;;;;;28.25;11.00;;;3.80;99.90;;;;;;5112466;27;20083;-77
2021/12/05 02:33:31;;;;;;;22.42;9.38;;;3.70;99.90;;;;;;5100599;27;20050;-77
2021/12/05 02:41:23;;;;;;;27.95;10.77;;;3.80;99.90;;;;;;5136322;27;20415;-79
2021/12/05 02:44:04;;;;;;;31.52;11.38;;;3.80;99.90;;;;;;5136449;27;20476;-78
2021/12/05 02:46:30;;;;;;;31.98;12.25;;;3.80;99.90;;;;;;5155526;27;20050;-80
2021/12/05 02:49:01;;;;;;;36.60;12.15;;;3.90;99.90;;;;;;5136533;27;20043;-77
2021/12/05 02:51:28;;;;;;;32.97;12.30;;;3.80;99.90;;;;;;5121799;27;20054;-78
2021/12/05 02:54:11;;;;;;;39.03;13.05;;;3.90;99.90;;;;;;5126391;27;20046;-77
2021/12/05 02:56:41;;;;;;;30.90;12.60;;;3.80;99.90;;;;;;5135602;27;20069;-77
2021/12/05 02:59:20;;;;;;;30.67;12.90;;;3.90;99.90;;;;;;5136379;27;20054;-77
2021/12/05 03:01:51;;;;;;;34.38;13.18;;;3.90;99.90;;;;;;5119266;27;20085;-78
2021/12/05 03:04:17;;;;;;;44.13;14.02;;;3.90;99.90;;;;;;5115979;27;20094;-77
2021/12/05 03:06:51;;;;;;;35.40;12.02;;;3.80;99.90;;;;;;5115794;27;20476;-77
2021/12/05 03:09:18;;;;;;;38.63;13.63;;;3.90;99.90;;;;;;5133007;27;20112;-77
2021/12/05 03:11:45;;;;;;;43.50;14.57;;;3.90;99.90;;;;;;5132766;27;20126;-77
2021/12/05 03:14:11;;;;;;;40.40;14.73;;;3.90;99.90;;;;;;5109553;27;20107;-78
2021/12/05 03:16:39;;;;;;;38.13;15.52;;;3.90;99.90;;;;;;5098810;27;20524;-77
2021/12/05 03:19:06;;;;;;;46.25;15.63;;;3.90;99.90;;;;;;5115529;27;20043;-77
2021/12/05 03:21:33;;;;;;;43.40;16.92;;;3.90;99.90;;;;;;5115246;27;20043;-82
2021/12/05 03:24:00;;;;;;;49.88;17.80;;;4.00;99.90;;;;;;5115792;27;20057;-78
2021/12/05 03:26:29;;;;;;;56.95;18.80;;;3.90;99.90;;;;;;5131449;27;20054;-77
2021/12/05 03:28:55;;;;;;;46.88;18.55;;;3.90;99.90;;;;;;5118058;27;20076;-77
2021/12/05 03:31:23;;;;;;;61.15;18.85;;;3.90;99.90;;;;;;5118736;27;20042;-78
2021/12/05 03:33:48;;;;;;;45.03;18.52;;;3.90;99.90;;;;;;5132090;27;20042;-77
2021/12/05 03:36:14;;;;;;;61.83;20.30;;;3.90;99.90;;;;;;5097955;27;20387;-77
2021/12/05 03:38:41;;;;;;;46.05;18.13;;;3.90;99.90;;;;;;5115548;27;20039;-77
2021/12/05 03:41:08;;;;;;;45.60;18.50;;;3.90;99.90;;;;;;5107197;27;20118;-77
2021/12/05 03:43:34;;;;;;;71.90;21.55;;;3.90;99.90;;;;;;5134534;27;20082;-77
2021/12/05 03:46:01;;;;;;;48.75;18.42;;;4.00;99.90;;;;;;5135471;27;20047;-77
2021/12/05 03:48:39;;;;;;;52.92;19.40;;;3.90;99.90;;;;;;5135790;27;20097;-77
2021/12/05 03:51:07;;;;;;;50.53;19.98;;;3.80;99.90;;;;;;5147651;27;20496;-77
2021/12/05 03:53:33;;;;;;;48.58;19.77;;;3.80;99.90;;;;;;5114540;27;20522;-77
2021/12/05 03:55:59;;;;;;;54.33;18.55;;;3.80;99.90;;;;;;5112785;27;20093;-77
2021/12/05 03:58:28;;;;;;;58.42;20.15;;;3.80;99.90;;;;;;5113939;27;20063;-77
2021/12/05 04:00:57;;;;;;;53.22;19.40;;;3.80;99.90;;;;;;5132237;27;20407;-85
2021/12/05 04:03:25;;;;;;;53.97;19.10;;;3.70;99.90;;;;;;5132277;27;20400;-78
2021/12/05 04:05:51;;;;;;;55.22;19.38;;;3.70;99.90;;;;;;5132635;27;20395;-76
2021/12/05 04:08:19;;;;;;;53.00;20.65;;;3.70;99.90;;;;;;5115107;27;20095;-76
2021/12/05 04:10:49;;;;;;;52.53;19.27;;;3.70;99.90;;;;;;5135025;27;20085;-76
2021/12/05 04:13:15;;;;;;;49.63;19.15;;;3.70;99.90;;;;;;5152122;27;20042;-77
2021/12/05 04:15:42;;;;;;;57.55;20.25;;;3.60;99.90;;;;;;5135096;27;20409;-80
2021/12/05 04:18:08;;;;;;;51.00;19.80;;;3.70;99.90;;;;;;5153096;27;20133;-79
2021/12/05 04:20:34;;;;;;;47.70;18.65;;;3.70;99.90;;;;;;5117666;27;20130;-77
2021/12/05 04:23:00;;;;;;;46.17;18.30;;;3.70;99.90;;;;;;5125868;27;20407;-80
2021/12/05 04:25:26;;;;;;;49.65;18.13;;;3.60;99.90;;;;;;5103583;27;20052;-77
2021/12/05 04:27:55;;;;;;;47.83;18.10;;;3.60;99.90;;;;;;5108760;28;20403;-77
2021/12/05 04:30:23;;;;;;;42.55;18.30;;;3.50;99.90;;;;;;5114619;27;20039;-77
2021/12/05 04:32:49;;;;;;;44.83;18.48;;;3.50;99.90;;;;;;5153072;27;20050;-78
2021/12/05 04:35:16;;;;;;;52.67;18.83;;;3.50;99.90;;;;;;5134695;27;20045;-77
2021/12/05 04:37:42;;;;;;;42.20;18.05;;;3.50;99.90;;;;;;5153100;27;20047;-77
2021/12/05 04:40:10;;;;;;;52.35;18.63;;;3.50;99.90;;;;;;5117424;27;20384;-79
2021/12/05 04:42:36;;;;;;;53.55;17.65;;;3.50;99.90;;;;;;5134698;27;20045;-77
2021/12/05 04:45:05;;;;;;;41.25;17.35;;;3.50;99.90;;;;;;5117699;27;20046;-77
2021/12/05 04:47:31;;;;;;;40.10;17.10;;;3.50;99.90;;;;;;5134760;27;20050;-78
2021/12/05 04:49:57;;;;;;;51.05;18.25;;;3.50;99.90;;;;;;5135040;27;20476;-77
2021/12/05 04:52:23;;;;;;;54.10;16.67;;;3.40;99.90;;;;;;5132041;27;20035;-77
2021/12/05 04:54:48;;;;;;;43.50;15.30;;;3.40;99.90;;;;;;5133821;27;20051;-77
2021/12/05 04:57:14;;;;;;;37.85;16.45;;;3.40;99.90;;;;;;5156021;27;20043;-77
2021/12/05 04:59:46;;;;;;;36.25;15.48;;;3.30;99.90;;;;;;5119468;27;20035;-77
2021/12/05 05:02:11;;;;;;;44.42;14.88;;;3.30;99.90;;;;;;5121345;27;20523;-77
2021/12/05 05:04:56;;;;;;;36.25;14.20;;;3.20;99.90;;;;;;5137220;27;20134;-77
2021/12/05 05:07:26;;;;;;;38.47;13.73;;;3.20;99.90;;;;;;5122644;27;20166;-82
2021/12/05 05:09:56;;;;;;;36.53;13.75;;;3.20;99.90;;;;;;5137583;27;20074;-77
2021/12/05 05:12:22;;;;;;;36.33;13.40;;;3.20;99.90;;;;;;5124882;27;20616;-77
2021/12/05 05:14:50;;;;;;;47.75;13.93;;;3.20;99.90;;;;;;5134574;27;20476;-77
2021/12/05 05:17:16;;;;;;;37.10;14.02;;;3.10;99.90;;;;;;5134360;27;20054;-77
2021/12/05 05:19:48;;;;;;;36.13;13.13;;;3.10;99.90;;;;;;5116265;27;20746;-77
2021/12/05 05:51:55;;;;;;;34.78;11.38;;;2.90;99.90;;;;;;5098897;27;20051;-78
2021/12/05 05:54:21;;;;;;;30.45;11.93;;;2.80;99.90;;;;;;5133960;27;20050;-78
2021/12/05 05:56:48;;;;;;;30.48;11.38;;;2.80;99.90;;;;;;5098019;27;20071;-77
2021/12/05 05:59:32;;;;;;;28.83;10.88;;;2.80;99.90;;;;;;5116215;27;20507;-78
2021/12/05 06:03:20;;;;;;;28.98;10.35;;;2.80;99.90;;;;;;5115860;27;20035;-77
2021/12/05 06:04:47;;;;;;;30.45;11.23;;;2.80;99.90;;;;;;5102785;27;20051;-77
2021/12/05 06:07:15;;;;;;;32.22;11.38;;;2.80;99.90;;;;;;5146179;27;20069;-77
2021/12/05 06:09:40;;;;;;;28.58;10.57;;;2.80;99.90;;;;;;5099757;27;20484;-78
2021/12/05 06:12:06;;;;;;;45.22;12.32;;;2.70;99.90;;;;;;5135250;27;20058;-77
2021/12/05 06:14:32;;;;;;;28.48;10.63;;;2.70;99.90;;;;;;5116437;27;20047;-77
2021/12/05 06:16:58;;;;;;;29.83;10.68;;;2.70;99.90;;;;;;5116996;27;20047;-77
2021/12/05 06:19:23;;;;;;;33.03;10.45;;;2.70;99.90;;;;;;5150666;27;20059;-77
2021/12/05 06:21:49;;;;;;;34.28;10.52;;;2.70;99.90;;;;;;5099862;27;20062;-77
2021/12/05 06:24:16;;;;;;;35.17;9.77;;;2.70;99.90;;;;;;5099665;27;20176;-79
2021/12/05 06:26:42;;;;;;;31.77;10.65;;;2.70;99.90;;;;;;5127327;27;20050;-77
2021/12/05 06:29:15;;;;;;;33.80;11.15;;;2.80;99.90;;;;;;5116444;27;20051;-77
2021/12/05 06:40:13;;;;;;;36.03;11.02;;;2.80;99.90;;;;;;5120430;27;20507;-78
2021/12/05 06:48:20;;;;;;;35.50;10.43;;;2.90;99.90;;;;;;5097792;27;20120;-78
2021/12/05 06:50:46;;;;;;;33.60;10.00;;;2.90;99.90;;;;;;5113128;27;20043;-82
2021/12/05 06:53:11;;;;;;;34.17;10.80;;;2.90;99.90;;;;;;5115896;27;20079;-78
2021/12/05 06:55:37;;;;;;;27.50;10.38;;;2.90;99.90;;;;;;5115853;27;20075;-77
2021/12/05 06:58:04;;;;;;;37.40;10.55;;;2.90;99.90;;;;;;5115790;27;20051;-78
2021/12/05 07:00:31;;;;;;;36.00;11.63;;;2.90;99.90;;;;;;5098414;27;20093;-78
2021/12/05 07:02:56;;;;;;;37.42;12.77;;;2.90;99.90;;;;;;5125690;27;20492;-77
2021/12/05 07:08:27;;;;;;;36.58;10.70;;;2.90;99.90;;;;;;5073270;28;20052;-77
2021/12/05 07:11:05;;;;;;;32.15;10.48;;;2.90;99.90;;;;;;5091634;27;20142;-78
2021/12/05 07:18:59;;;;;;;37.20;10.98;;;3.00;99.90;;;;;;5121126;27;20068;-78
2021/12/05 07:21:38;;;;;;;38.38;12.50;;;3.00;99.90;;;;;;5130252;27;20129;-78
2021/12/05 07:40:44;;;;;;;36.00;11.25;;;3.10;99.90;;;;;;5087954;27;20518;-77
2021/12/05 07:43:11;;;;;;;32.08;12.65;;;3.20;99.90;;;;;;5133414;27;20046;-78
2021/12/05 07:45:44;;;;;;;33.63;11.98;;;3.20;99.90;;;;;;5097401;27;20500;-77
2021/12/05 07:48:15;;;;;;;39.28;12.60;;;3.20;99.90;;;;;;5098152;27;20104;-77
2021/12/05 07:53:37;;;;;;;36.85;13.13;;;3.30;99.90;;;;;;5114594;27;20051;-78
2021/12/05 07:56:13;;;;;;;41.65;13.00;;;3.20;99.90;;;;;;5097422;27;20046;-79
2021/12/05 08:14:20;;;;;;;34.13;11.53;;;3.30;99.90;;;;;;5117403;27;19919;-78
2021/12/05 08:15:10;;;;;;;38.13;12.68;;;3.40;99.90;;;;;;5113871;27;20058;-78
2021/12/05 08:17:33;;;;;;;38.60;12.83;;;3.40;99.90;;;;;;5113348;27;20047;-79
2021/12/05 08:19:59;;;;;;;35.65;13.65;;;3.40;99.90;;;;;;5096572;27;20812;-79
2021/12/05 08:22:25;;;;;;;38.45;13.68;;;3.40;99.90;;;;;;5118942;27;20046;-83
2021/12/05 08:24:51;;;;;;;50.33;14.10;;;3.50;99.90;;;;;;5152792;27;20448;-78
2021/12/05 08:27:17;;;;;;;44.83;12.65;;;3.50;99.90;;;;;;5112798;27;20047;-77
2021/12/05 08:29:49;;;;;;;42.20;13.68;;;3.50;99.90;;;;;;5113058;28;20078;-77
2021/12/05 08:37:40;;;;;;;35.17;13.07;;;3.60;99.90;;;;;;5134983;27;20038;-78
2021/12/05 08:40:37;;;;;;;40.70;13.13;;;3.70;99.90;;;;;;5129276;27;20047;-80
2021/12/05 09:26:51;;;;;;;35.60;12.40;;;4.20;99.90;;;;;;5112005;28;20503;-83
2021/12/05 09:40:35;;;;;;;30.33;11.75;;;4.30;99.90;;;;;;5120129;27;20046;-77
2021/12/05 09:51:55;;;;;;;33.30;14.85;;;4.40;99.90;;;;;;5121609;27;20437;-77
2021/12/05 10:35:18;;;;;;;24.85;11.60;;;5.00;99.90;;;;;;5008749;28;20050;-81
2021/12/05 10:37:47;;;;;;;27.95;10.45;;;4.90;99.90;;;;;;5009076;28;20103;-82
2021/12/05 10:40:20;;;;;;;30.25;12.95;;;4.90;99.90;;;;;;5014314;28;20084;-82
2021/12/05 10:42:52;;;;;;;48.83;22.67;;;4.90;99.90;;;;;;4985356;28;20046;-82
2021/12/05 10:45:35;;;;;;;36.85;18.25;;;4.90;99.90;;;;;;5027301;28;20038;-82
2021/12/05 10:48:08;;;;;;;25.08;10.52;;;5.00;99.90;;;;;;5026671;28;20252;-80
2021/12/05 10:50:49;;;;;;;29.13;11.57;;;5.00;99.90;;;;;;5029880;28;20653;-82
2021/12/05 10:53:30;;;;;;;39.92;21.70;;;5.00;99.90;;;;;;5012806;28;20077;-81
2021/12/05 10:56:27;;;;;;;24.75;11.10;;;5.00;99.90;;;;;;4996808;28;20053;-82
2021/12/05 10:59:00;;;;;;;34.17;16.85;;;5.00;99.90;;;;;;5013302;28;20107;-82
2021/12/05 11:01:40;;;;;;;28.52;17.85;;;5.00;99.90;;;;;;5013037;28;20120;-82
2021/12/05 11:04:13;;;;;;;31.42;18.33;;;5.00;99.90;;;;;;4996511;28;20053;-82
2021/12/05 11:06:52;;;;;;;27.00;12.05;;;4.90;99.90;;;;;;4996612;28;20457;-83
2021/12/05 11:09:20;;;;;;;23.45;10.63;;;4.90;99.90;;;;;;5009469;28;20083;-82
2021/12/05 11:11:51;;;;;;;25.35;10.95;;;4.90;99.90;;;;;;5033022;28;20136;-83
2021/12/05 11:14:27;;;;;;;23.00;12.40;;;4.90;99.90;;;;;;5020916;28;20049;-85
2021/12/05 11:17:26;;;;;;;25.63;12.38;;;4.90;99.90;;;;;;4997921;28;20137;-84
2021/12/05 11:19:59;;;;;;;23.02;11.75;;;4.90;99.90;;;;;;4988946;28;20061;-84
2021/12/05 11:22:31;;;;;;;27.02;13.43;;;4.90;99.90;;;;;;4994020;28;20054;-84
2021/12/05 11:25:27;;;;;;;24.02;11.63;;;4.90;99.90;;;;;;5013059;28;20097;-83
2021/12/05 11:28:00;;;;;;;20.38;10.32;;;4.90;99.90;;;;;;4995365;28;20069;-82
2021/12/05 11:30:33;;;;;;;22.42;11.45;;;4.80;99.90;;;;;;4993263;28;20060;-81
2021/12/05 11:33:01;;;;;;;21.05;10.02;;;4.80;99.90;;;;;;5027508;28;20430;-83
2021/12/05 11:35:33;;;;;;;22.25;10.30;;;4.90;99.90;;;;;;4995666;28;20049;-83
2021/12/05 11:38:13;;;;;;;18.23;10.27;;;4.80;99.90;;;;;;4991837;28;20049;-83
2021/12/05 11:41:03;;;;;;;27.75;11.88;;;4.90;99.90;;;;;;5007614;28;20045;-83
2021/12/05 11:43:46;;;;;;;23.42;10.13;;;4.90;99.90;;;;;;4997380;28;20522;-82
2021/12/05 11:46:12;;;;;;;28.85;14.15;;;4.90;99.90;;;;;;4996619;28;20509;-84
2021/12/05 11:48:44;;;;;;;44.40;23.67;;;4.90;99.90;;;;;;4995605;28;20092;-83
2021/12/05 11:51:33;;;;;;;48.30;26.83;;;4.90;99.90;;;;;;4980143;28;20053;-84
2021/12/05 11:54:09;;;;;;;39.42;22.27;;;4.90;99.90;;;;;;5011913;28;20050;-82
2021/12/05 11:56:35;;;;;;;;;;;4.90;99.90;;;;;;4977972;28;20049;-85
2021/12/05 11:59:25;;;;;;;34.30;17.13;;;4.90;99.90;;;;;;4976608;28;19922;-84
2021/12/05 12:02:14;;;;;;;39.92;24.08;;;4.90;99.90;;;;;;4976352;28;20499;-88
2021/12/05 12:04:48;;;;;;;30.20;19.13;;;4.90;99.90;;;;;;4977360;28;20060;-83
2021/12/05 12:07:34;;;;;;;31.33;16.08;;;4.90;99.90;;;;;;5009519;28;20049;-78
2021/12/05 12:10:13;;;;;;;26.23;11.98;;;4.90;99.90;;;;;;5012285;28;20049;-85
2021/12/05 12:12:45;;;;;;;22.67;11.13;;;4.90;99.90;;;;;;5012688;28;20503;-84
2021/12/05 12:15:14;;;;;;;26.15;10.93;;;4.90;99.90;;;;;;4996332;28;20086;-82
2021/12/05 12:17:40;;;;;;;22.08;11.15;;;4.90;99.90;;;;;;5012818;28;20199;-84
2021/12/05 12:20:11;;;;;;;26.10;10.88;;;5.00;99.90;;;;;;4992009;28;20091;-79
2021/12/05 12:22:39;;;;;;;22.17;11.43;;;4.90;99.90;;;;;;4994399;28;20067;-80
2021/12/05 12:25:10;;;;;;;28.75;11.20;;;5.00;99.90;;;;;;4988915;28;20045;-79
2021/12/05 12:27:36;;;;;;;27.17;11.98;;;5.00;99.90;;;;;;5012010;28;20049;-79
2021/12/05 12:30:08;;;;;;;27.55;11.50;;;5.00;99.90;;;;;;5009987;28;20565;-80
2021/12/05 12:32:39;;;;;;;26.70;11.32;;;5.10;99.90;;;;;;4978754;28;20076;-81
2021/12/05 12:35:15;;;;;;;23.40;10.20;;;5.10;99.90;;;;;;5000942;28;20053;-81
2021/12/05 12:38:01;;;;;;;30.20;13.80;;;5.20;99.90;;;;;;4987082;28;20058;-81
2021/12/05 12:40:39;;;;;;;32.22;19.27;;;5.30;99.90;;;;;;4993838;28;20077;-81
2021/12/05 12:43:08;;;;;;;32.47;18.13;;;5.30;99.90;;;;;;4977416;28;20404;-78
2021/12/05 12:45:42;;;;;;;54.55;32.03;;;5.40;99.90;;;;;;4998871;28;20056;-77
2021/12/05 12:48:15;;;;;;;38.45;22.35;;;5.30;99.90;;;;;;4979100;28;20053;-78
2021/12/05 12:50:51;;;;;;;58.42;30.95;;;5.30;99.90;;;;;;5008307;28;20556;-83
2021/12/05 12:53:23;;;;;;;59.50;33.15;;;5.20;99.90;;;;;;4987017;28;20133;-83
2021/12/05 12:56:09;;;;;;;46.67;23.83;;;5.20;99.90;;;;;;5002740;28;20054;-83
2021/12/05 12:58:37;;;;;;;;;;;5.30;99.90;;;;;;4995745;28;20050;-81
2021/12/05 13:01:18;;;;;;;30.15;14.65;;;5.40;99.90;;;;;;4995129;28;19933;-80
2021/12/05 13:10:09;;;;;;;28.77;15.70;;;5.50;99.90;;;;;;4938414;28;20051;-81
2021/12/05 13:12:41;;;;;;;42.47;22.73;;;5.50;99.90;;;;;;4986342;28;20047;-81
2021/12/05 13:15:09;;;;;;;32.17;20.02;;;5.50;99.90;;;;;;5007971;28;20140;-81
2021/12/05 13:18:23;;;;;;;37.38;22.08;;;5.50;99.90;;;;;;5031117;28;20119;-86
2021/12/05 13:21:04;;;;;;;41.33;26.30;;;5.50;99.90;;;;;;5011571;28;20054;-82
2021/12/05 13:23:36;;;;;;;30.42;17.25;;;5.40;99.90;;;;;;5013377;28;20037;-84
2021/12/05 13:26:21;;;;;;;29.98;15.45;;;5.40;99.90;;;;;;4996338;28;20048;-83
2021/12/05 13:29:21;;;;;;;17.85;9.38;;;5.40;99.90;;;;;;5012950;28;20049;-84
2021/12/05 13:32:08;;;;;;;24.48;9.85;;;5.30;99.90;;;;;;4976675;28;20061;-84
2021/12/05 13:35:06;;;;;;;24.73;14.23;;;5.30;99.90;;;;;;4997757;28;20061;-83
2021/12/05 13:37:35;;;;;;;25.05;14.23;;;5.30;99.90;;;;;;5012520;28;20054;-84
2021/12/05 13:40:23;;;;;;;24.08;12.23;;;5.30;99.90;;;;;;5011771;28;20055;-85
2021/12/05 13:42:51;;;;;;;26.45;13.40;;;5.30;99.90;;;;;;5026247;28;20121;-83
2021/12/05 13:45:26;;;;;;;42.53;19.13;;;5.30;99.90;;;;;;4977476;28;20053;-83
2021/12/05 13:47:52;;;;;;;34.50;16.50;;;5.40;99.90;;;;;;5010942;28;20054;-83
2021/12/05 13:50:25;;;;;;;25.25;14.05;;;5.30;99.90;;;;;;4994917;28;20076;-83
2021/12/05 13:53:03;;;;;;;46.72;23.40;;;5.30;99.90;;;;;;5011902;28;20092;-83
2021/12/05 13:55:40;;;;;;;49.30;22.90;;;5.40;99.90;;;;;;4986244;28;20056;-84
2021/12/05 13:58:34;;;;;;;36.88;16.13;;;5.50;99.90;;;;;;4997019;28;20053;-84
2021/12/05 14:01:27;;;;;;;56.58;32.25;;;5.50;99.90;;;;;;4998644;28;20053;-83
2021/12/05 14:04:10;;;;;;;85.15;56.92;;;5.50;99.90;;;;;;5015268;28;20049;-83
2021/12/05 14:07:01;;;;;;;89.63;56.60;;;5.50;99.90;;;;;;4999285;28;20061;-83
2021/12/05 14:09:51;;;;;;;47.08;24.52;;;5.50;99.90;;;;;;4999393;28;20049;-83
2021/12/05 14:12:19;;;;;;;26.92;12.02;;;5.50;99.90;;;;;;4997885;28;20053;-84
2021/12/05 14:15:00;;;;;;;20.42;9.88;;;5.50;99.90;;;;;;5014705;28;20068;-83
2021/12/05 14:17:33;;;;;;;21.63;10.20;;;5.50;99.90;;;;;;5013726;28;20510;-83
2021/12/05 14:20:11;;;;;;;23.00;10.63;;;5.50;99.90;;;;;;4998236;28;20057;-83
2021/12/05 14:22:39;;;;;;;19.17;9.90;;;5.40;99.90;;;;;;4998525;28;20061;-83
2021/12/05 14:25:12;;;;;;;23.17;10.68;;;5.40;99.90;;;;;;4982496;28;20107;-88
2021/12/05 14:27:45;;;;;;;25.92;10.82;;;5.40;99.90;;;;;;4998278;28;20096;-82
2021/12/05 14:30:14;;;;;;;20.08;10.05;;;5.40;99.90;;;;;;4997049;28;20048;-86
2021/12/05 14:32:43;;;;;;;20.77;9.45;;;5.40;99.90;;;;;;4987870;28;20089;-83
2021/12/05 14:35:18;;;;;;;19.13;9.75;;;5.30;99.90;;;;;;4997439;28;20095;-78
2021/12/05 14:37:47;;;;;;;18.83;9.67;;;5.30;99.90;;;;;;5005952;28;20045;-84
2021/12/05 14:40:36;;;;;;;22.23;9.98;;;5.30;99.90;;;;;;4995429;28;20057;-84
2021/12/05 14:43:10;;;;;;;19.92;9.52;;;5.20;99.90;;;;;;5007451;28;20049;-82
2021/12/05 14:45:39;;;;;;;19.88;9.98;;;5.20;99.90;;;;;;5009076;28;20049;-83
2021/12/05 14:48:10;;;;;;;25.65;11.05;;;5.20;99.90;;;;;;5004596;28;20065;-83
2021/12/05 14:50:37;;;;;;;20.48;9.88;;;5.10;99.90;;;;;;5000103;28;20452;-83
2021/12/05 14:53:06;;;;;;;23.05;10.55;;;5.20;99.90;;;;;;5001719;28;20045;-83
2021/12/05 14:55:33;;;;;;;22.45;10.35;;;5.10;99.90;;;;;;5010376;28;20135;-82
2021/12/05 14:58:06;;;;;;;26.83;11.27;;;5.10;99.90;;;;;;4985874;28;20053;-81
2021/12/05 15:00:35;;;;;;;26.20;9.95;;;5.00;99.90;;;;;;4995308;28;20056;-83
2021/12/05 15:03:07;;;;;;;24.88;10.35;;;5.00;99.90;;;;;;5004143;28;20485;-83
2021/12/05 15:05:34;;;;;;;24.27;11.50;;;5.00;99.90;;;;;;4990354;28;20049;-83
2021/12/05 15:08:06;;;;;;;23.50;13.02;;;5.00;99.90;;;;;;5004979;28;20148;-83
2021/12/05 15:10:34;;;;;;;23.30;13.25;;;5.00;99.90;;;;;;5011904;28;20060;-85
2021/12/05 15:13:01;;;;;;;24.65;11.52;;;4.90;99.90;;;;;;4987770;28;20081;-84
2021/12/05 15:15:27;;;;;;;26.60;12.68;;;4.90;99.90;;;;;;5012288;28;20395;-83
2021/12/05 15:17:55;;;;;;;29.08;12.02;;;4.90;99.90;;;;;;5009694;28;20046;-84
2021/12/05 15:20:28;;;;;;;42.63;20.17;;;4.90;99.90;;;;;;4992884;28;20430;-83
2021/12/05 15:23:01;;;;;;;39.58;21.70;;;4.80;99.90;;;;;;5011987;28;20045;-83
2021/12/05 15:25:28;;;;;;;25.35;12.95;;;4.80;99.90;;;;;;5013721;28;20080;-83
2021/12/05 15:27:55;;;;;;;46.75;17.08;;;4.80;99.90;;;;;;4977571;28;20053;-83
2021/12/05 15:30:28;;;;;;;89.28;30.15;;;4.80;99.90;;;;;;4975108;28;20080;-83
2021/12/05 15:33:11;;;;;;;91.80;33.17;;;4.80;99.90;;;;;;5002145;28;20453;-83
2021/12/05 15:35:38;;;;;;;74.55;26.10;;;4.70;99.90;;;;;;5016442;28;20179;-84
2021/12/05 15:38:10;;;;;;;70.63;27.50;;;4.70;99.90;;;;;;4995318;28;20060;-83
2021/12/05 15:40:40;;;;;;;52.03;22.10;;;4.70;99.90;;;;;;5004841;28;20383;-83
2021/12/05 15:43:09;;;;;;;78.13;23.02;;;4.80;99.90;;;;;;5016827;28;20049;-82
2021/12/05 15:45:36;;;;;;;47.95;20.05;;;4.70;99.90;;;;;;4992333;28;20045;-82
2021/12/05 15:48:03;;;;;;;100.93;51.40;;;4.70;99.90;;;;;;5006759;28;20053;-82
2021/12/05 15:50:37;;;;;;;44.97;21.20;;;4.70;99.90;;;;;;4979127;28;20630;-84
2021/12/05 15:53:11;;;;;;;54.10;22.08;;;4.70;99.90;;;;;;4991929;28;20049;-85
2021/12/05 15:55:43;;;;;;;87.05;29.70;;;4.70;99.90;;;;;;4995742;28;20145;-84
2021/12/05 15:58:31;;;;;;;75.82;26.27;;;4.70;99.90;;;;;;5026522;28;20049;-83
2021/12/05 16:01:05;;;;;;;48.92;23.70;;;4.60;99.90;;;;;;4993462;28;20042;-83
2021/12/05 16:03:50;;;;;;;112.63;42.88;;;4.70;99.90;;;;;;4982866;28;20519;-83
2021/12/05 16:06:18;;;;;;;69.63;29.20;;;4.60;99.90;;;;;;5001694;28;20610;-84
2021/12/05 16:08:49;;;;;;;77.38;29.58;;;4.50;99.90;;;;;;5003738;28;20111;-82
2021/12/05 16:11:18;;;;;;;88.47;34.70;;;4.60;99.90;;;;;;4980361;28;20073;-82
2021/12/05 16:13:48;;;;;;;73.78;27.23;;;4.50;99.90;;;;;;5020598;28;20755;-83
2021/12/05 16:16:26;;;;;;;77.50;31.27;;;4.50;99.90;;;;;;4991205;28;20049;-83
2021/12/05 16:18:55;;;;;;;46.40;19.23;;;4.50;99.90;;;;;;5007526;28;20053;-84
2021/12/05 16:21:30;;;;;;;56.80;22.45;;;4.50;99.90;;;;;;5008514;28;20068;-83
2021/12/05 16:24:07;;;;;;;75.82;31.65;;;4.50;99.90;;;;;;5010529;28;20049;-83
2021/12/05 16:26:34;;;;;;;64.40;28.05;;;4.50;99.90;;;;;;5007511;28;20061;-83
2021/12/05 16:29:03;;;;;;;38.15;14.98;;;4.50;99.90;;;;;;5001275;28;20053;-82
2021/12/05 16:31:36;;;;;;;45.35;19.42;;;4.50;99.90;;;;;;4987775;28;20077;-82
2021/12/05 16:34:17;;;;;;;163.90;67.53;;;4.50;99.90;;;;;;5013634;28;20128;-82
2021/12/05 16:37:09;;;;;;;54.70;26.92;;;4.50;99.90;;;;;;4997846;28;20041;-83
2021/12/05 16:39:51;;;;;;;53.47;22.40;;;4.50;99.90;;;;;;5014846;28;20045;-83
2021/12/05 16:42:20;;;;;;;57.97;28.58;;;4.50;99.90;;;;;;5011609;28;20045;-83
2021/12/05 16:44:55;;;;;;;46.20;19.23;;;4.50;99.90;;;;;;5009720;28;20099;-82
2021/12/05 16:47:24;;;;;;;49.53;24.83;;;4.50;99.90;;;;;;5001450;28;20103;-85
2021/12/05 16:49:53;;;;;;;44.80;19.25;;;4.50;99.90;;;;;;4993827;28;20136;-83
2021/12/05 16:52:41;;;;;;;52.70;24.75;;;4.50;99.90;;;;;;5005531;28;20103;-85
2021/12/05 16:55:22;;;;;;;36.15;17.02;;;4.50;99.90;;;;;;5016861;28;20091;-82
2021/12/05 16:57:58;;;;;;;44.67;20.42;;;4.50;99.90;;;;;;5006684;28;21810;-83
2021/12/05 17:00:26;;;;;;;50.00;23.05;;;4.50;99.90;;;;;;5014037;28;20140;-83
2021/12/05 17:02:56;;;;;;;41.63;18.75;;;4.60;99.90;;;;;;5028837;28;20057;-82
2021/12/05 17:05:33;;;;;;;45.25;21.38;;;4.50;99.90;;;;;;4985390;28;20080;-84
2021/12/05 17:10:43;;;;;;;38.22;17.58;;;4.40;99.90;;;;;;5015024;28;20050;-81
2021/12/05 17:13:26;;;;;;;37.60;17.40;;;4.50;99.90;;;;;;4997674;28;20049;-82
2021/12/05 17:16:08;;;;;;;41.08;18.08;;;4.50;99.90;;;;;;5001605;28;20467;-82
2021/12/05 17:18:36;;;;;;;50.58;20.55;;;4.50;99.90;;;;;;5005789;28;20045;-83
2021/12/05 17:21:12;;;;;;;71.10;26.38;;;4.50;99.90;;;;;;5015398;28;20060;-83
2021/12/05 17:23:50;;;;;;;58.35;23.33;;;4.50;99.90;;;;;;4995810;28;20079;-83
2021/12/05 17:26:33;;;;;;;42.22;19.70;;;4.50;99.90;;;;;;5007745;28;20093;-82
2021/12/05 17:29:24;;;;;;;54.65;20.15;;;4.50;99.90;;;;;;5001848;28;20041;-82
2021/12/05 17:31:52;;;;;;;46.17;20.27;;;4.50;99.90;;;;;;4993621;28;20502;-84
2021/12/05 17:34:23;;;;;;;63.13;26.13;;;4.50;99.90;;;;;;5002955;28;20054;-82
2021/12/05 17:37:07;;;;;;;52.08;21.67;;;4.50;99.90;;;;;;5011104;28;20051;-82
2021/12/05 17:39:39;;;;;;;55.42;22.60;;;4.50;99.90;;;;;;4998157;28;20128;-81
2021/12/05 17:42:12;;;;;;;55.85;21.63;;;4.50;99.90;;;;;;5014463;28;20038;-83
2021/12/05 17:44:39;;;;;;;54.63;22.90;;;4.50;99.90;;;;;;4998433;28;20132;-84
2021/12/05 17:47:07;;;;;;;52.92;24.08;;;4.50;99.90;;;;;;5007672;28;20045;-84
2021/12/05 17:49:35;;;;;;;44.35;20.10;;;4.50;99.90;;;;;;4982699;28;20053;-80
2021/12/05 17:52:02;;;;;;;44.70;19.73;;;4.50;99.90;;;;;;4987948;28;20045;-81
2021/12/05 17:54:35;;;;;;;50.45;20.55;;;4.50;99.90;;;;;;5010323;28;20048;-83
2021/12/05 17:57:09;;;;;;;49.65;20.80;;;4.50;99.90;;;;;;4995612;28;20506;-82
2021/12/05 18:00:02;;;;;;;73.45;28.27;;;4.50;99.90;;;;;;5013257;28;20413;-83
2021/12/05 18:02:43;;;;;;;92.57;31.60;;;4.50;99.90;;;;;;4987769;28;20057;-82
2021/12/05 18:05:14;;;;;;;78.32;28.67;;;4.60;99.90;;;;;;5004610;28;20570;-82
2021/12/05 18:07:41;;;;;;;67.72;27.92;;;4.60;99.90;;;;;;4993840;28;20060;-82
2021/12/05 18:10:13;;;;;;;58.30;25.00;;;4.50;99.90;;;;;;4994203;28;20060;-81
2021/12/05 18:12:39;;;;;;;66.63;26.88;;;4.60;99.90;;;;;;5005775;28;20052;-81
2021/12/05 18:15:18;;;;;;;69.05;29.95;;;4.60;99.90;;;;;;4995654;28;20041;-81
2021/12/05 18:17:47;;;;;;;59.33;23.80;;;4.60;99.90;;;;;;4994096;28;20550;-82
2021/12/05 18:20:19;;;;;;;60.90;24.80;;;4.60;99.90;;;;;;5008827;28;20491;-83
2021/12/05 18:22:47;;;;;;;60.75;23.92;;;4.60;99.90;;;;;;4993168;28;20056;-83
2021/12/05 18:25:13;;;;;;;50.38;21.52;;;4.60;99.90;;;;;;4994179;28;20103;-83
2021/12/05 18:27:40;;;;;;;56.13;23.92;;;4.50;99.90;;;;;;4986632;28;20037;-84